createdAt,value
2023-03-04T00:00:54.278Z,71.42
2023-03-04T00:03:22.656Z,71.47
2023-03-04T00:05:50.828Z,71.55
2023-03-04T00:08:18.922Z,71.28
2023-03-04T00:10:47.093Z,71.41
2023-03-04T00:13:15.297Z,71.04
2023-03-04T00:15:43.443Z,70.98
2023-03-04T00:18:11.501Z,70.97
2023-03-04T00:20:39.610Z,70.47
2023-03-04T00:23:08.096Z,70.92
2023-03-04T00:25:36.223Z,70.51
2023-03-04T00:28:04.630Z,70.68
2023-03-04T00:30:32.967Z,70.63
2023-03-04T00:33:01.174Z,70.80
2023-03-04T00:35:29.422Z,71.20
2023-03-04T00:37:57.762Z,70.90
2023-03-04T00:40:25.987Z,71.31
2023-03-04T00:42:54.141Z,71.01
2023-03-04T00:45:22.252Z,71.36
2023-03-04T00:47:50.437Z,70.98
2023-03-04T00:50:18.746Z,71.05
2023-03-04T00:52:46.996Z,70.92
2023-03-04T00:55:15.211Z,71.03
2023-03-04T00:57:43.282Z,71.16
2023-03-04T01:00:12.684Z,71.70
2023-03-04T01:02:40.985Z,71.43
2023-03-04T01:05:09.951Z,71.64
2023-03-04T01:07:38.137Z,71.52
2023-03-04T01:10:08.062Z,71.56
2023-03-04T01:12:36.701Z,71.80
2023-03-04T01:15:05.389Z,72.17
2023-03-04T01:17:36.532Z,72.00
2023-03-04T01:20:06.933Z,71.51
2023-03-04T01:22:35.287Z,71.62
2023-03-04T01:25:04.156Z,71.35
2023-03-04T01:27:33.613Z,71.35
2023-03-04T01:30:01.778Z,71.46
2023-03-04T01:32:31.087Z,71.37
2023-03-04T01:34:59.235Z,71.15
2023-03-04T01:37:27.390Z,71.48
2023-03-04T01:39:55.546Z,71.72
2023-03-04T01:42:26.622Z,71.53
2023-03-04T01:44:54.834Z,71.81
2023-03-04T01:47:27.232Z,71.86
2023-03-04T01:49:57.706Z,71.86
2023-03-04T01:52:27.987Z,72.00
2023-03-04T01:54:57.564Z,72.23
2023-03-04T01:57:26.860Z,72.34
2023-03-04T02:00:26.181Z,72.64
2023-03-04T02:02:59.206Z,73.32
2023-03-04T02:05:28.504Z,73.35
2023-03-04T02:07:58.721Z,73.28
2023-03-04T02:10:27.239Z,73.50
2023-03-04T02:12:55.509Z,73.18
2023-03-04T02:15:25.080Z,72.52
2023-03-04T02:17:53.745Z,72.66
2023-03-04T02:20:25.778Z,72.67
2023-03-04T02:23:20.113Z,72.55
2023-03-04T02:25:55.362Z,72.50
2023-03-04T02:28:23.677Z,72.76
2023-03-04T02:30:53.031Z,72.86
2023-03-04T02:33:22.552Z,72.87
2023-03-04T02:35:50.785Z,72.41
2023-03-04T02:38:18.887Z,72.23
2023-03-04T02:40:50.527Z,71.94
2023-03-04T02:43:18.696Z,71.95
2023-03-04T02:45:52.059Z,71.84
2023-03-04T02:48:22.548Z,71.68
2023-03-04T02:50:53.011Z,71.74
2023-03-04T02:53:22.360Z,71.76
2023-03-04T02:55:51.057Z,71.62
2023-03-04T02:58:20.095Z,71.46
2023-03-04T03:00:48.432Z,71.31
2023-03-04T03:03:17.046Z,71.31
2023-03-04T03:05:45.506Z,71.26
2023-03-04T03:08:13.948Z,71.13
2023-03-04T03:10:42.414Z,71.03
2023-03-04T03:13:10.726Z,71.24
2023-03-04T03:15:42.322Z,71.29
2023-03-04T03:18:11.430Z,71.22
2023-03-04T03:20:39.687Z,71.39
2023-03-04T03:23:08.629Z,71.26
2023-03-04T03:25:37.144Z,71.54
2023-03-04T03:28:07.043Z,71.27
2023-03-04T03:30:35.316Z,71.13
2023-03-04T03:33:05.607Z,70.81
2023-03-04T03:35:34.458Z,70.56
2023-03-04T03:38:02.650Z,70.12
2023-03-04T03:40:30.822Z,70.22
2023-03-04T03:42:59.080Z,70.17
2023-03-04T03:45:27.518Z,70.35
2023-03-04T03:47:55.774Z,69.95
2023-03-04T03:50:24.030Z,70.01
2023-03-04T03:52:52.164Z,70.15
2023-03-04T03:55:20.246Z,70.04
2023-03-04T03:57:48.696Z,70.00
2023-03-04T04:00:17.756Z,70.01
2023-03-04T04:02:45.865Z,70.12
2023-03-04T04:05:14.700Z,70.09
2023-03-04T04:07:43.065Z,70.11
2023-03-04T04:10:12.289Z,70.17
2023-03-04T04:12:40.561Z,70.28
2023-03-04T04:15:11.588Z,70.31
2023-03-04T04:17:40.179Z,70.32
2023-03-04T04:20:09.305Z,70.60
2023-03-04T04:22:37.678Z,70.38
2023-03-04T04:25:09.002Z,70.26
2023-03-04T04:27:37.489Z,69.98
2023-03-04T04:30:06.435Z,69.85
2023-03-04T04:32:34.682Z,69.67
2023-03-04T04:35:02.841Z,69.41
2023-03-04T04:37:31.941Z,69.21
2023-03-04T04:40:00.101Z,68.91
2023-03-04T04:42:28.250Z,68.65
2023-03-04T04:44:57.879Z,68.69
2023-03-04T04:47:26.100Z,68.47
2023-03-04T04:49:54.382Z,68.34
2023-03-04T04:52:22.562Z,68.42
2023-03-04T04:54:50.743Z,68.48
2023-03-04T04:57:18.891Z,68.52
2023-03-04T04:59:46.977Z,68.68
2023-03-04T05:02:15.353Z,68.78
2023-03-04T05:04:43.536Z,69.07
2023-03-04T05:07:11.671Z,68.97
2023-03-04T05:09:39.768Z,69.34
2023-03-04T05:12:08.131Z,69.22
2023-03-04T05:14:36.260Z,69.27
2023-03-04T05:17:04.537Z,69.46
2023-03-04T05:19:32.740Z,69.90
2023-03-04T05:22:00.883Z,70.13
2023-03-04T05:24:29.046Z,69.47
2023-03-04T05:26:57.153Z,69.12
2023-03-04T05:29:25.233Z,68.71
2023-03-04T05:31:53.804Z,66.50
2023-03-04T05:34:21.932Z,65.56
2023-03-04T05:36:50.068Z,63.77
2023-03-04T05:39:18.443Z,63.95
2023-03-04T05:41:46.531Z,63.31
2023-03-04T05:44:14.780Z,62.34
2023-03-04T05:46:42.870Z,60.02
2023-03-04T05:49:11.057Z,59.94
2023-03-04T05:51:39.165Z,56.24
2023-03-04T05:54:07.639Z,54.63
2023-03-04T05:56:35.970Z,52.25
2023-03-04T05:59:04.157Z,51.45
2023-03-04T06:01:32.477Z,51.12
2023-03-04T06:04:00.742Z,50.95
2023-03-04T06:06:29.022Z,50.56
2023-03-04T06:08:57.389Z,49.13
2023-03-04T06:11:25.642Z,48.37
2023-03-04T06:13:53.937Z,47.99
2023-03-04T06:16:22.305Z,47.41
2023-03-04T06:18:50.500Z,46.45
2023-03-04T06:21:18.893Z,45.45
2023-03-04T06:23:47.244Z,44.50
2023-03-04T06:26:15.937Z,43.82
2023-03-04T06:28:45.411Z,43.51
2023-03-04T06:31:13.493Z,42.53
2023-03-04T06:33:42.030Z,42.25
2023-03-04T06:36:10.342Z,41.21
2023-03-04T06:38:38.560Z,39.88
2023-03-04T06:41:11.621Z,39.03
2023-03-04T06:43:40.203Z,38.56
2023-03-04T06:46:10.065Z,37.79
2023-03-04T06:48:38.389Z,37.16
2023-03-04T06:51:09.086Z,36.12
2023-03-04T06:53:38.776Z,36.46
2023-03-04T06:56:08.982Z,35.70
2023-03-04T06:58:37.405Z,35.12
2023-03-04T07:01:16.754Z,34.80
2023-03-04T07:03:46.432Z,34.95
2023-03-04T07:06:17.341Z,34.27
2023-03-04T07:08:46.414Z,33.91
2023-03-04T07:11:15.145Z,34.29
2023-03-04T07:13:43.713Z,33.60
2023-03-04T07:16:15.465Z,32.81
2023-03-04T07:18:44.865Z,32.67
2023-03-04T07:21:14.662Z,32.69
2023-03-04T07:23:43.119Z,32.66
2023-03-04T07:26:11.461Z,31.99
2023-03-04T07:28:40.071Z,30.86
2023-03-04T07:31:30.847Z,30.67
2023-03-04T07:34:05.588Z,29.81
2023-03-04T07:36:36.156Z,28.64
2023-03-04T07:39:05.725Z,28.26
2023-03-04T07:41:37.524Z,28.13
2023-03-04T07:44:07.127Z,27.09
2023-03-04T07:46:35.893Z,26.61
2023-03-04T07:49:04.563Z,26.06
2023-03-04T07:51:33.157Z,25.26
2023-03-04T07:54:01.877Z,24.46
2023-03-04T07:56:33.069Z,24.17
2023-03-04T07:59:02.286Z,23.62
2023-03-04T08:01:33.960Z,23.68
2023-03-04T08:04:03.526Z,25.41
2023-03-04T08:06:33.221Z,25.97
2023-03-04T08:09:05.842Z,25.72
2023-03-04T08:11:36.977Z,25.29
2023-03-04T08:14:05.795Z,24.38
2023-03-04T08:16:34.071Z,25.14
2023-03-04T08:19:04.032Z,24.71
2023-03-04T08:21:33.128Z,23.65
2023-03-04T08:24:08.149Z,22.78
2023-03-04T08:26:42.007Z,22.79
2023-03-04T08:29:17.270Z,21.69
2023-03-04T08:31:48.824Z,20.90
2023-03-04T08:34:18.963Z,20.32
2023-03-04T08:36:47.669Z,20.54
2023-03-04T08:39:18.043Z,20.41
2023-03-04T08:41:47.060Z,19.16
2023-03-04T08:44:15.799Z,19.44
2023-03-04T08:46:44.366Z,19.07
2023-03-04T08:49:14.627Z,18.20
2023-03-04T08:51:43.042Z,18.58
2023-03-04T08:54:11.488Z,19.02
2023-03-04T08:56:41.171Z,18.80
2023-03-04T08:59:09.324Z,19.18
2023-03-04T09:01:37.553Z,20.91
2023-03-04T09:04:05.911Z,21.16
2023-03-04T09:06:33.991Z,20.98
2023-03-04T09:09:03.904Z,20.76
2023-03-04T09:11:31.984Z,20.45
2023-03-04T09:14:00.294Z,20.07
2023-03-04T09:16:28.598Z,19.70
2023-03-04T09:18:56.909Z,19.59
2023-03-04T09:21:25.019Z,19.27
2023-03-04T09:23:53.283Z,19.17
2023-03-04T09:26:26.873Z,18.71
2023-03-04T09:28:58.007Z,19.07
2023-03-04T09:31:27.607Z,18.20
2023-03-04T09:33:57.876Z,18.43
2023-03-04T09:36:26.180Z,18.40
2023-03-04T09:38:54.614Z,18.26
2023-03-04T09:41:29.404Z,18.60
2023-03-04T09:43:58.280Z,19.92
2023-03-04T09:46:46.705Z,19.98
2023-03-04T09:49:16.292Z,19.99
2023-03-04T09:51:59.720Z,20.25
2023-03-04T09:54:38.787Z,20.25
2023-03-04T09:57:17.414Z,19.88
2023-03-04T10:00:00.395Z,19.61
2023-03-04T10:02:50.489Z,19.22
2023-03-04T10:05:25.017Z,18.44
2023-03-04T10:08:00.539Z,18.13
2023-03-04T10:10:36.378Z,16.84
2023-03-04T10:13:11.967Z,16.99
2023-03-04T10:15:44.622Z,16.28
2023-03-04T10:18:29.150Z,15.57
2023-03-04T10:21:22.808Z,15.50
2023-03-04T10:23:51.132Z,15.36
2023-03-04T10:26:21.716Z,15.17
2023-03-04T10:28:50.604Z,15.73
2023-03-04T10:31:35.519Z,15.31
2023-03-04T10:34:07.255Z,15.09
2023-03-04T10:36:46.629Z,15.04
2023-03-04T10:39:33.079Z,15.23
2023-03-04T10:42:27.184Z,14.90
2023-03-04T10:44:58.518Z,14.89
2023-03-04T10:47:30.150Z,14.82
2023-03-04T10:50:00.725Z,14.57
2023-03-04T10:52:39.904Z,14.83
2023-03-04T10:55:21.274Z,14.36
2023-03-04T10:58:02.452Z,13.68
2023-03-04T11:00:34.786Z,13.70
2023-03-04T11:03:21.930Z,13.80
2023-03-04T11:05:50.533Z,13.94
2023-03-04T11:08:23.637Z,14.02
2023-03-04T11:10:52.380Z,14.35
2023-03-04T11:13:25.674Z,14.09
2023-03-04T11:15:58.793Z,14.10
2023-03-04T11:18:33.633Z,14.10
2023-03-04T11:21:01.897Z,14.36
2023-03-04T11:23:44.319Z,14.50
2023-03-04T11:26:21.338Z,14.28
2023-03-04T11:28:53.820Z,14.97
2023-03-04T11:31:28.147Z,14.86
2023-03-04T11:34:18.264Z,15.11
2023-03-04T11:37:28.583Z,15.50
2023-03-04T11:39:58.675Z,15.57
2023-03-04T11:42:53.703Z,16.23
2023-03-04T11:45:34.122Z,18.02
2023-03-04T11:48:17.581Z,18.83
2023-03-04T11:50:53.617Z,19.65
2023-03-04T11:53:56.654Z,20.98
2023-03-04T11:56:34.575Z,23.03
2023-03-04T11:59:41.168Z,23.81
2023-03-04T12:02:17.550Z,25.09
2023-03-04T12:04:57.938Z,26.38
2023-03-04T12:07:48.109Z,27.09
2023-03-04T12:10:40.157Z,28.10
2023-03-04T12:13:30.782Z,28.78
2023-03-04T12:16:30.180Z,29.68
2023-03-04T12:19:26.211Z,29.06
2023-03-04T12:22:39.041Z,29.88
2023-03-04T12:25:36.267Z,30.87
2023-03-04T12:28:35.103Z,30.96
2023-03-04T12:31:31.704Z,30.90
2023-03-04T12:34:16.099Z,32.70
2023-03-04T12:37:01.940Z,32.35
2023-03-04T12:39:36.260Z,31.93
2023-03-04T12:42:23.200Z,32.23
2023-03-04T12:45:18.387Z,32.57
2023-03-04T12:47:52.891Z,32.87
2023-03-04T12:50:38.299Z,33.93
2023-03-04T12:53:35.033Z,34.05
2023-03-04T12:56:05.334Z,33.60
2023-03-04T12:58:36.129Z,33.78
2023-03-04T13:01:18.776Z,34.00
2023-03-04T13:03:56.281Z,33.44
2023-03-04T13:06:49.399Z,34.42
2023-03-04T13:09:23.618Z,34.62
2023-03-04T13:11:55.148Z,34.98
2023-03-04T13:14:27.102Z,35.52
2023-03-04T13:17:34.277Z,33.78
2023-03-04T13:20:22.633Z,33.29
2023-03-04T13:23:02.070Z,33.89
2023-03-04T13:25:51.009Z,34.45
2023-03-04T13:28:22.761Z,34.36
2023-03-04T13:30:57.142Z,34.98
2023-03-04T13:33:25.290Z,35.70
2023-03-04T13:35:58.295Z,37.09
2023-03-04T13:38:32.606Z,37.15
2023-03-04T13:41:14.120Z,37.66
2023-03-04T13:43:47.493Z,38.54
2023-03-04T13:46:18.872Z,38.03
2023-03-04T13:48:50.320Z,38.82
2023-03-04T13:51:29.809Z,38.17
2023-03-04T13:53:58.525Z,37.73
2023-03-04T13:56:38.028Z,38.43
2023-03-04T13:59:09.497Z,37.60
2023-03-04T14:01:56.879Z,36.33
2023-03-04T14:04:40.403Z,36.37
2023-03-04T14:07:22.060Z,36.55
2023-03-04T14:09:56.709Z,36.64
2023-03-04T14:12:26.435Z,36.40
2023-03-04T14:15:01.188Z,36.92
2023-03-04T14:17:37.095Z,37.48
2023-03-04T14:20:21.261Z,38.67
2023-03-04T14:22:49.625Z,39.84
2023-03-04T14:25:23.777Z,39.21
2023-03-04T14:28:10.002Z,39.38
2023-03-04T14:30:43.133Z,39.46
2023-03-04T14:33:25.994Z,39.56
2023-03-04T14:36:01.095Z,38.52
2023-03-04T14:38:38.260Z,38.79
2023-03-04T14:41:18.752Z,38.62
2023-03-04T14:44:22.350Z,38.09
2023-03-04T14:47:07.403Z,38.60
2023-03-04T14:49:38.631Z,39.74
2023-03-04T14:52:07.356Z,40.46
2023-03-04T14:54:39.085Z,41.00
2023-03-04T14:57:21.193Z,40.47
2023-03-04T14:59:50.196Z,41.78
2023-03-04T15:02:18.956Z,41.65
2023-03-04T15:04:48.794Z,42.48
2023-03-04T15:07:21.529Z,42.99
2023-03-04T15:09:55.092Z,43.67
2023-03-04T15:12:27.085Z,43.59
2023-03-04T15:14:59.783Z,43.30
2023-03-04T15:17:38.909Z,43.35
2023-03-04T15:20:07.026Z,43.77
2023-03-04T15:22:56.894Z,43.82
2023-03-04T15:25:25.114Z,43.73
2023-03-04T15:27:56.731Z,44.38
2023-03-04T15:30:30.978Z,44.12
2023-03-04T15:33:00.041Z,44.52
2023-03-04T15:35:32.071Z,44.65
2023-03-04T15:38:00.713Z,45.07
2023-03-04T15:40:31.972Z,45.29
2023-03-04T15:43:02.814Z,46.06
2023-03-04T15:45:36.454Z,46.46
2023-03-04T15:48:09.829Z,46.85
2023-03-04T15:50:42.112Z,46.60
2023-03-04T15:53:17.879Z,46.52
2023-03-04T15:55:46.923Z,47.00
2023-03-04T15:58:16.183Z,47.04
2023-03-04T16:00:45.195Z,47.24
2023-03-04T16:03:16.784Z,47.30
2023-03-04T16:05:47.239Z,47.81
2023-03-04T16:08:18.806Z,48.03
2023-03-04T16:10:47.455Z,48.11
2023-03-04T16:13:18.578Z,48.37
2023-03-04T16:15:47.408Z,47.94
2023-03-04T16:18:16.423Z,48.84
2023-03-04T16:20:48.524Z,48.84
2023-03-04T16:23:21.151Z,49.56
2023-03-04T16:25:52.467Z,49.86
2023-03-04T16:28:20.877Z,50.79
2023-03-04T16:30:49.415Z,51.29
2023-03-04T16:33:17.651Z,52.12
2023-03-04T16:35:46.831Z,52.03
2023-03-04T16:38:34.597Z,52.46
2023-03-04T16:41:03.273Z,53.42
2023-03-04T16:43:31.385Z,53.56
2023-03-04T16:45:59.565Z,53.75
2023-03-04T16:48:27.755Z,54.00
2023-03-04T16:50:59.379Z,54.14
2023-03-04T16:53:37.681Z,53.87
2023-03-04T16:56:17.303Z,54.74
2023-03-04T16:58:46.078Z,54.34
2023-03-04T17:01:23.566Z,54.32
2023-03-04T17:03:53.359Z,54.29
2023-03-04T17:06:23.411Z,54.41
2023-03-04T17:08:51.933Z,53.95
2023-03-04T17:11:23.082Z,54.44
2023-03-04T17:13:51.712Z,54.32
2023-03-04T17:16:20.352Z,54.53
2023-03-04T17:18:49.566Z,54.49
2023-03-04T17:21:21.978Z,54.32
2023-03-04T17:23:50.579Z,54.11
2023-03-04T17:26:21.158Z,53.74
2023-03-04T17:28:50.862Z,53.54
2023-03-04T17:31:20.785Z,53.44
2023-03-04T17:33:49.999Z,53.36
2023-03-04T17:36:19.651Z,53.06
2023-03-04T17:38:49.629Z,54.00
2023-03-04T17:41:18.840Z,53.70
2023-03-04T17:43:49.190Z,54.48
2023-03-04T17:46:20.452Z,54.37
2023-03-04T17:48:49.697Z,54.07
2023-03-04T17:51:18.954Z,54.63
2023-03-04T17:53:47.187Z,54.56
2023-03-04T17:56:15.361Z,53.00
2023-03-04T17:58:44.285Z,52.63
2023-03-04T18:01:20.630Z,52.87
2023-03-04T18:03:49.482Z,52.42
2023-03-04T18:06:18.550Z,53.64
2023-03-04T18:08:46.775Z,55.07
2023-03-04T18:11:15.691Z,54.41
2023-03-04T18:13:44.888Z,55.36
2023-03-04T18:16:16.186Z,55.54
2023-03-04T18:18:45.311Z,55.77
2023-03-04T18:21:13.698Z,56.30
2023-03-04T18:23:41.924Z,56.35
2023-03-04T18:26:11.193Z,55.46
2023-03-04T18:28:39.684Z,57.35
2023-03-04T18:31:07.923Z,57.13
2023-03-04T18:33:37.253Z,57.80
2023-03-04T18:36:12.317Z,57.08
2023-03-04T18:38:41.062Z,57.55
2023-03-04T18:41:12.250Z,58.12
2023-03-04T18:43:40.830Z,57.14
2023-03-04T18:46:16.591Z,57.28
2023-03-04T18:48:52.176Z,57.84
2023-03-04T18:51:20.798Z,57.33
2023-03-04T18:53:52.076Z,58.39
2023-03-04T18:56:27.578Z,59.24
2023-03-04T18:58:55.856Z,59.41
2023-03-04T19:01:25.247Z,59.66
2023-03-04T19:03:54.574Z,59.62
2023-03-04T19:06:24.893Z,59.79
2023-03-04T19:08:55.354Z,59.57
2023-03-04T19:11:24.851Z,59.13
2023-03-04T19:13:52.978Z,60.44
2023-03-04T19:16:21.333Z,59.68
2023-03-04T19:18:49.620Z,59.76
2023-03-04T19:21:17.774Z,59.53
2023-03-04T19:23:45.948Z,59.41
2023-03-04T19:26:15.647Z,59.51
2023-03-04T19:28:43.874Z,59.53
2023-03-04T19:31:12.291Z,59.31
2023-03-04T19:33:41.500Z,59.08
2023-03-04T19:36:10.582Z,58.94
2023-03-04T19:38:38.751Z,58.06
2023-03-04T19:41:16.448Z,58.57
2023-03-04T19:43:46.118Z,58.20
2023-03-04T19:46:14.616Z,58.49
2023-03-04T19:48:42.859Z,58.26
2023-03-04T19:51:19.451Z,58.29
2023-03-04T19:53:48.369Z,58.65
2023-03-04T19:56:16.880Z,58.06
2023-03-04T19:58:48.354Z,58.40
2023-03-04T20:01:31.479Z,58.83
2023-03-04T20:04:02.594Z,59.33
2023-03-04T20:06:31.381Z,58.82
2023-03-04T20:09:00.898Z,59.07
2023-03-04T20:11:30.159Z,59.07
2023-03-04T20:14:00.481Z,59.18
2023-03-04T20:16:29.226Z,58.79
2023-03-04T20:18:58.292Z,58.40
2023-03-04T20:21:32.101Z,58.15
2023-03-04T20:24:01.953Z,57.70
2023-03-04T20:26:32.297Z,57.18
2023-03-04T20:29:00.592Z,57.07
2023-03-04T20:31:31.810Z,56.83
2023-03-04T20:34:00.380Z,56.17
2023-03-04T20:36:32.036Z,56.09
2023-03-04T20:39:02.835Z,55.48
2023-03-04T20:41:34.927Z,55.44
2023-03-04T20:44:04.611Z,55.31
2023-03-04T20:46:45.445Z,55.45
2023-03-04T20:49:23.662Z,55.44
2023-03-04T20:51:53.804Z,55.58
2023-03-04T20:54:22.101Z,55.56
2023-03-04T20:56:50.681Z,55.43
2023-03-04T20:59:19.108Z,55.66
2023-03-04T21:01:50.386Z,56.16
2023-03-04T21:04:19.961Z,56.11
2023-03-04T21:06:48.528Z,55.96
2023-03-04T21:09:18.864Z,56.31
2023-03-04T21:11:48.408Z,56.43
2023-03-04T21:14:25.155Z,55.94
2023-03-04T21:16:56.619Z,56.47
2023-03-04T21:19:33.756Z,56.75
2023-03-04T21:22:03.680Z,56.68
2023-03-04T21:24:34.644Z,56.75
2023-03-04T21:27:04.390Z,56.49
2023-03-04T21:29:32.860Z,56.55
2023-03-04T21:32:22.403Z,56.35
2023-03-04T21:34:52.521Z,57.03
2023-03-04T21:37:22.373Z,57.36
2023-03-04T21:39:50.966Z,57.33
2023-03-04T21:42:19.717Z,57.19
2023-03-04T21:44:50.868Z,57.70
2023-03-04T21:47:20.933Z,57.54
2023-03-04T21:49:49.671Z,58.09
2023-03-04T21:52:20.356Z,58.04
2023-03-04T21:54:49.629Z,58.38
2023-03-04T21:57:18.633Z,58.12
2023-03-04T21:59:46.865Z,58.78
2023-03-04T22:02:20.851Z,59.26
2023-03-04T22:04:49.120Z,59.83
2023-03-04T22:07:18.035Z,59.56
2023-03-04T22:09:46.329Z,59.95
2023-03-04T22:12:16.404Z,60.17
2023-03-04T22:14:45.925Z,60.19
2023-03-04T22:17:14.260Z,60.14
2023-03-04T22:19:42.548Z,60.41
2023-03-04T22:22:10.798Z,61.41
2023-03-04T22:24:38.972Z,61.29
2023-03-04T22:27:07.140Z,61.75
2023-03-04T22:29:35.359Z,61.84
2023-03-04T22:32:04.009Z,62.27
2023-03-04T22:34:32.311Z,62.15
2023-03-04T22:37:00.435Z,61.70
2023-03-04T22:39:28.646Z,61.94
2023-03-04T22:41:56.856Z,62.15
2023-03-04T22:44:25.017Z,62.78
2023-03-04T22:46:53.073Z,64.04
2023-03-04T22:49:21.199Z,63.81
2023-03-04T22:51:49.348Z,63.54
2023-03-04T22:54:18.926Z,63.31
2023-03-04T22:56:47.222Z,64.12
2023-03-04T22:59:15.416Z,64.33
2023-03-04T23:01:43.609Z,63.40
2023-03-04T23:04:11.949Z,63.28
2023-03-04T23:06:40.049Z,62.51
2023-03-04T23:09:08.092Z,62.81
2023-03-04T23:11:36.619Z,62.56
2023-03-04T23:14:08.048Z,62.19
2023-03-04T23:16:39.487Z,62.54
2023-03-04T23:19:08.845Z,62.54
2023-03-04T23:21:37.212Z,62.24
2023-03-04T23:24:07.919Z,62.96
2023-03-04T23:26:41.325Z,62.72
2023-03-04T23:29:13.756Z,63.30
2023-03-04T23:31:44.296Z,62.99
2023-03-04T23:34:13.268Z,63.15
2023-03-04T23:36:42.155Z,62.84
2023-03-04T23:39:12.444Z,63.45
2023-03-04T23:41:41.286Z,64.06
2023-03-04T23:44:11.072Z,64.51
2023-03-04T23:46:40.165Z,64.40
2023-03-04T23:49:11.381Z,64.13
2023-03-04T23:51:40.978Z,63.71
2023-03-04T23:54:09.251Z,63.66
2023-03-04T23:56:37.609Z,63.74
2023-03-04T23:59:07.872Z,63.48
